Time;durP1;ratioP1;P1;durP2;ratioP2;P2;SDS_P1;SDS_P2;PMS_P1;PMS_P2;Temp;Humidity;BMP_temperature;BMP_pressure;BME280_temperature;BME280_humidity;BME280_pressure;Samples;Min_cycle;Max_cycle;Signal;HPM_P1;HPM_P2
2022/10/25 00:01:25;;;;;;;18.02;4.60;;;;;;;13.44;57.60;95276.53;5087091;28;20024;-71
2022/10/25 00:03:51;;;;;;;15.35;5.30;;;;;;;13.35;57.84;95265.94;5086645;28;20047;-71
2022/10/25 00:06:16;;;;;;;12.27;4.88;;;;;;;13.26;58.02;95266.72;5086993;28;20028;-71
2022/10/25 00:08:42;;;;;;;11.82;4.82;;;;;;;12.91;59.11;95261.88;5085145;28;20138;-71
2022/10/25 00:11:10;;;;;;;14.48;4.60;;;;;;;13.04;58.80;95272.09;5085443;28;20051;-71
2022/10/25 00:13:35;;;;;;;18.15;5.15;;;;;;;13.21;58.29;95273.28;5068042;28;20039;-71
2022/10/25 00:16:00;;;;;;;13.30;4.78;;;;;;;13.16;58.51;95273.66;5084746;28;20039;-71
2022/10/25 00:18:26;;;;;;;11.80;5.05;;;;;;;13.02;59.05;95279.22;5088224;28;20130;-71
2022/10/25 00:20:51;;;;;;;14.32;5.05;;;;;;;12.79;59.68;95258.53;5070456;28;20058;-71
2022/10/25 00:23:17;;;;;;;15.48;5.40;;;;;;;12.69;60.34;95265.47;5085937;28;20026;-71
2022/10/25 00:25:43;;;;;;;15.25;5.90;;;;;;;12.48;61.42;95268.09;5088086;28;20506;-71
2022/10/25 00:28:09;;;;;;;13.55;5.32;;;;;;;12.69;60.84;95275.91;5064803;28;20078;-71
2022/10/25 00:30:34;;;;;;;17.45;6.38;;;;;;;12.64;61.06;95270.25;5068312;28;20027;-71
2022/10/25 00:33:00;;;;;;;19.77;5.80;;;;;;;12.62;61.07;95278.22;5084981;28;20028;-71
2022/10/25 00:35:25;;;;;;;15.02;5.78;;;;;;;12.53;61.07;95269.34;5086965;28;20459;-71
2022/10/25 00:37:50;;;;;;;18.85;6.35;;;;;;;12.47;61.24;95276.88;5085273;28;20039;-71
2022/10/25 00:40:16;;;;;;;13.98;5.30;;;;;;;12.42;61.08;95282.44;5086354;28;20047;-71
2022/10/25 00:42:42;;;;;;;16.75;5.35;;;;;;;12.13;61.66;95271.00;5067333;28;20039;-71
2022/10/25 00:45:24;;;;;;;17.38;6.15;;;;;;;12.01;61.76;95271.06;5086158;28;20067;-71
2022/10/25 00:48:03;;;;;;;18.30;5.40;;;;;;;11.93;61.78;95277.84;5085328;28;20218;-71
2022/10/25 00:50:48;;;;;;;15.43;5.45;;;;;;;11.74;62.07;95239.41;5085276;28;20532;-71
2022/10/25 00:53:17;;;;;;;12.18;5.20;;;;;;;11.91;62.18;95262.34;5084736;28;20120;-71
2022/10/25 00:55:44;;;;;;;16.05;4.97;;;;;;;11.79;62.34;95255.50;5085871;28;20106;-71
2022/10/25 00:58:16;;;;;;;12.57;4.95;;;;;;;11.77;62.37;95250.41;5068916;28;20595;-71
2022/10/25 01:00:42;;;;;;;14.27;5.38;;;;;;;11.77;62.37;95249.56;5066376;28;20039;-71
2022/10/25 01:03:08;;;;;;;9.80;4.38;;;;;;;11.74;62.55;95258.47;5067603;28;20035;-71
2022/10/25 01:05:33;;;;;;;15.38;4.75;;;;;;;11.52;62.95;95251.53;5087148;28;20039;-71
2022/10/25 01:07:59;;;;;;;12.30;4.50;;;;;;;11.43;62.85;95243.66;5050294;28;20053;-71
2022/10/25 01:10:25;;;;;;;12.95;4.45;;;;;;;11.41;62.88;95254.16;5069128;28;20039;-71
2022/10/25 01:12:50;;;;;;;14.25;4.80;;;;;;;11.44;63.64;95253.09;5058042;28;20045;-71
2022/10/25 01:15:15;;;;;;;13.85;5.18;;;;;;;11.41;63.88;95252.38;5057613;28;20020;-71
2022/10/25 01:18:04;;;;;;;10.25;5.10;;;;;;;11.35;64.74;95259.84;5083207;28;20157;-71
2022/10/25 01:20:41;;;;;;;15.88;5.43;;;;;;;11.23;64.56;95247.78;5086117;28;20505;-71
2022/10/25 01:23:31;;;;;;;14.60;5.20;;;;;;;11.25;65.07;95245.91;5084576;28;20036;-71
2022/10/25 01:26:27;;;;;;;14.38;4.97;;;;;;;11.26;64.53;95248.41;5085227;28;20032;-71
2022/10/25 01:29:17;;;;;;;19.60;6.15;;;;;;;11.12;64.81;95249.50;5083753;28;20086;-70
2022/10/25 01:31:48;;;;;;;17.52;4.75;;;;;;;11.13;64.90;95242.50;5081301;28;20036;-71
2022/10/25 01:34:38;;;;;;;17.13;5.18;;;;;;;11.05;65.11;95235.28;5087180;28;20024;-71
2022/10/25 01:37:33;;;;;;;14.70;4.80;;;;;;;11.03;65.74;95250.22;5082377;28;20071;-71
2022/10/25 01:40:08;;;;;;;12.55;5.32;;;;;;;10.94;65.57;95227.50;5085172;28;20036;-71
2022/10/25 01:42:48;;;;;;;12.95;4.97;;;;;;;11.11;65.30;95240.00;5068581;28;20039;-70
2022/10/25 01:45:35;;;;;;;12.10;5.13;;;;;;;11.08;65.73;95236.84;5066727;28;20124;-71
2022/10/25 01:48:00;;;;;;;13.45;5.47;;;;;;;10.85;65.58;95246.41;5080434;28;20246;-70
2022/10/25 01:50:31;;;;;;;12.95;5.32;;;;;;;10.81;66.11;95247.59;5069011;28;20553;-70
2022/10/25 01:52:57;;;;;;;14.90;5.38;;;;;;;10.88;66.06;95251.38;5067927;28;20442;-71
2022/10/25 01:55:26;;;;;;;17.63;6.32;;;;;;;10.85;66.36;95234.25;5050993;28;20151;-71
2022/10/25 01:58:01;;;;;;;15.93;4.68;;;;;;;10.91;66.53;95244.16;5058435;28;20119;-71
2022/10/25 02:00:26;;;;;;;14.68;5.05;;;;;;;10.81;66.29;95227.66;5087740;28;20039;-72
2022/10/25 02:02:54;;;;;;;12.43;5.55;;;;;;;10.81;66.33;95239.78;5067337;28;20036;-71
2022/10/25 02:05:31;;;;;;;14.18;4.50;;;;;;;10.68;66.26;95240.75;5087208;28;20032;-71
2022/10/25 02:08:19;;;;;;;13.48;5.10;;;;;;;10.74;65.62;95240.25;5098715;28;20063;-71
2022/10/25 02:10:49;;;;;;;13.80;4.68;;;;;;;10.74;66.03;95236.84;5086216;28;20482;-70
2022/10/25 02:13:16;;;;;;;14.02;4.72;;;;;;;10.77;66.08;95230.59;5081038;28;20494;-71
2022/10/25 02:15:49;;;;;;;11.68;5.30;;;;;;;10.67;66.29;95223.50;5083095;28;20031;-70
2022/10/25 02:18:17;;;;;;;13.43;4.38;;;;;;;10.77;65.17;95223.63;5071036;28;20081;-70
2022/10/25 02:20:42;;;;;;;10.65;4.32;;;;;;;10.56;65.64;95220.91;5073851;28;20089;-71
2022/10/25 02:23:08;;;;;;;12.50;4.22;;;;;;;10.56;65.48;95238.25;5089868;28;20035;-71
2022/10/25 02:25:34;;;;;;;12.85;4.03;;;;;;;10.38;65.98;95236.09;5088435;28;20047;-72
2022/10/25 02:28:00;;;;;;;12.15;4.47;;;;;;;10.27;65.55;95226.50;5088189;28;20513;-71
2022/10/25 02:30:26;;;;;;;11.40;4.25;;;;;;;10.32;66.11;95227.94;5071305;28;20024;-70
2022/10/25 02:32:51;;;;;;;14.20;4.60;;;;;;;10.34;66.37;95226.06;5088181;28;20036;-70
2022/10/25 02:35:17;;;;;;;20.58;4.40;;;;;;;10.11;66.81;95200.00;5071948;28;20032;-71
2022/10/25 02:37:42;;;;;;;18.48;5.00;;;;;;;10.31;67.06;95221.94;5071688;28;20040;-71
2022/10/25 02:40:08;;;;;;;9.10;4.13;;;;;;;10.35;67.38;95212.13;5067853;28;20036;-71
2022/10/25 02:42:34;;;;;;;12.23;4.30;;;;;;;10.38;67.04;95212.72;5069506;28;20095;-71
2022/10/25 02:44:59;;;;;;;12.88;4.70;;;;;;;10.28;66.96;95207.41;5054150;28;20032;-71
2022/10/25 02:47:25;;;;;;;18.02;5.38;;;;;;;10.18;68.20;95216.78;5072056;28;20032;-71
2022/10/25 02:49:50;;;;;;;15.90;5.38;;;;;;;10.19;68.50;95202.03;5087087;28;20122;-72
2022/10/25 02:52:16;;;;;;;11.98;4.88;;;;;;;10.23;67.51;95201.69;5087498;28;20575;-72
2022/10/25 02:54:41;;;;;;;16.23;5.30;;;;;;;10.22;67.50;95214.78;5072065;28;20028;-72
2022/10/25 02:57:07;;;;;;;16.77;4.53;;;;;;;10.08;67.74;95210.63;5085399;28;20093;-72
2022/10/25 02:59:32;;;;;;;13.45;5.15;;;;;;;10.14;67.70;95236.16;5065171;28;20473;-71
2022/10/25 03:01:57;;;;;;;14.55;5.20;;;;;;;10.03;68.04;95233.53;5090104;28;20043;-71
2022/10/25 03:04:23;;;;;;;12.98;5.18;;;;;;;10.02;68.12;95237.88;5090590;28;20413;-71
2022/10/25 03:06:48;;;;;;;13.63;5.10;;;;;;;10.07;68.42;95232.34;5089875;28;20062;-71
2022/10/25 03:09:14;;;;;;;9.10;4.53;;;;;;;10.04;68.95;95235.16;5089145;28;20105;-71
2022/10/25 03:11:39;;;;;;;13.55;4.65;;;;;;;9.98;69.37;95220.06;5060614;28;20044;-71
2022/10/25 03:14:05;;;;;;;10.45;5.03;;;;;;;9.98;69.46;95230.44;5083198;28;20043;-71
2022/10/25 03:16:30;;;;;;;15.52;5.13;;;;;;;9.97;69.33;95226.16;5089701;28;20032;-71
2022/10/25 03:18:57;;;;;;;12.88;5.90;;;;;;;10.06;69.34;95222.91;5087397;28;20035;-71
2022/10/25 03:21:22;;;;;;;11.43;5.00;;;;;;;9.97;69.49;95215.78;5054682;28;20456;-71
2022/10/25 03:23:48;;;;;;;13.07;4.65;;;;;;;9.85;69.30;95194.16;5068544;28;20036;-71
2022/10/25 03:26:13;;;;;;;14.32;4.80;;;;;;;10.04;68.68;95207.44;5086529;28;20029;-71
2022/10/25 03:28:38;;;;;;;13.82;4.75;;;;;;;9.95;69.04;95215.09;5087672;28;20028;-71
2022/10/25 03:31:09;;;;;;;15.73;4.85;;;;;;;9.77;68.67;95207.69;5088172;28;20482;-71
2022/10/25 03:33:34;;;;;;;13.00;4.55;;;;;;;9.55;68.27;95177.31;5068615;28;20513;-71
2022/10/25 03:36:00;;;;;;;10.02;4.80;;;;;;;9.66;69.03;95225.00;5087310;28;20051;-71
2022/10/25 03:38:25;;;;;;;20.42;6.15;;;;;;;9.61;69.16;95227.91;5086858;28;20032;-71
2022/10/25 03:40:52;;;;;;;16.95;5.82;;;;;;;9.54;69.83;95232.72;5089036;28;20468;-71
2022/10/25 03:43:17;;;;;;;20.10;5.80;;;;;;;9.64;70.41;95227.72;5087830;28;20050;-71
2022/10/25 03:45:43;;;;;;;15.10;6.10;;;;;;;9.52;70.03;95223.41;5070509;28;20501;-71
2022/10/25 03:48:08;;;;;;;14.18;6.10;;;;;;;9.59;70.08;95224.63;5086321;28;20036;-71
2022/10/25 03:50:35;;;;;;;16.05;5.65;;;;;;;9.63;70.04;95220.84;5087124;28;20032;-71
2022/10/25 03:53:00;;;;;;;14.48;5.63;;;;;;;9.72;69.76;95217.63;5084978;28;20036;-71
2022/10/25 03:55:26;;;;;;;18.60;4.72;;;;;;;9.67;70.23;95221.44;5087384;28;20406;-71
2022/10/25 03:57:51;;;;;;;16.75;5.18;;;;;;;9.50;69.64;95223.53;5085097;28;20077;-71
2022/10/25 04:00:16;;;;;;;10.98;4.00;;;;;;;9.46;69.93;95221.25;5089056;28;20039;-71
2022/10/25 04:02:42;;;;;;;18.00;5.13;;;;;;;9.31;69.79;95210.22;5085151;28;20036;-71
2022/10/25 04:05:08;;;;;;;12.02;4.63;;;;;;;9.36;69.73;95208.97;5088602;28;20035;-71
2022/10/25 04:07:33;;;;;;;13.75;5.05;;;;;;;9.32;69.99;95206.69;5085843;28;20501;-71
2022/10/25 04:09:58;;;;;;;13.20;4.40;;;;;;;9.18;70.21;95192.94;5088495;28;20513;-71
2022/10/25 04:12:24;;;;;;;8.50;4.07;;;;;;;9.21;69.93;95194.47;5069172;28;20036;-71
2022/10/25 04:14:49;;;;;;;10.80;5.35;;;;;;;9.10;69.33;95208.19;5087179;28;20024;-71
2022/10/25 04:17:16;;;;;;;14.55;5.25;;;;;;;8.88;70.82;95197.69;5067462;28;20064;-71
2022/10/25 04:19:42;;;;;;;11.95;4.88;;;;;;;9.04;70.41;95205.22;5068407;28;20498;-71
2022/10/25 04:22:12;;;;;;;11.23;4.93;;;;;;;8.99;70.40;95209.91;5064334;28;20041;-70
2022/10/25 04:24:37;;;;;;;19.00;5.28;;;;;;;9.07;70.39;95205.00;5050084;28;20024;-71
2022/10/25 04:27:03;;;;;;;11.80;5.13;;;;;;;9.07;70.70;95210.19;5048391;28;20395;-71
2022/10/25 04:29:28;;;;;;;19.83;6.10;;;;;;;8.98;71.61;95209.06;5062764;28;20040;-71
2022/10/25 04:31:53;;;;;;;14.05;6.63;;;;;;;8.87;71.76;95209.81;5042774;28;20040;-71
2022/10/25 04:34:19;;;;;;;15.43;6.72;;;;;;;8.68;72.41;95202.50;5065692;28;20020;-71
2022/10/25 04:36:44;;;;;;;18.73;7.18;;;;;;;8.71;73.02;95217.00;5065611;28;20040;-71
2022/10/25 04:39:10;;;;;;;19.00;6.97;;;;;;;8.69;73.81;95218.84;5066598;28;20028;-71
2022/10/25 04:41:35;;;;;;;16.30;7.43;;;;;;;8.74;73.81;95234.91;5064851;28;20025;-71
2022/10/25 04:44:00;;;;;;;15.25;6.97;;;;;;;8.81;73.21;95232.75;5064934;28;20021;-71
2022/10/25 04:46:26;;;;;;;15.23;6.55;;;;;;;8.82;73.15;95243.00;5066598;28;20025;-71
2022/10/25 04:48:51;;;;;;;13.48;5.45;;;;;;;8.87;73.69;95237.50;5066046;28;20032;-71
2022/10/25 04:51:17;;;;;;;15.18;5.75;;;;;;;8.81;73.67;95230.97;5066164;28;20020;-71
2022/10/25 04:53:42;;;;;;;11.52;5.05;;;;;;;8.86;73.37;95246.19;5064831;28;20097;-71
2022/10/25 04:56:11;;;;;;;14.45;5.65;;;;;;;8.96;72.93;95236.84;5065789;28;20040;-71
2022/10/25 04:58:37;;;;;;;16.63;4.38;;;;;;;8.98;72.95;95222.03;5065917;28;20086;-71
2022/10/25 05:01:07;;;;;;;10.27;4.85;;;;;;;9.14;72.72;95230.41;5064068;28;20020;-71
2022/10/25 05:03:33;;;;;;;13.57;6.10;;;;;;;9.12;72.10;95232.25;5045162;28;20517;-71
2022/10/25 05:06:05;;;;;;;16.05;5.53;;;;;;;9.03;71.79;95242.47;5045215;28;20025;-69
2022/10/25 05:08:31;;;;;;;14.38;5.10;;;;;;;8.78;72.36;95202.69;5061543;28;20110;-70
2022/10/25 05:10:56;;;;;;;11.95;5.13;;;;;;;8.92;72.60;95230.25;5049412;28;20032;-70
2022/10/25 05:13:22;;;;;;;15.05;5.20;;;;;;;9.08;71.97;95235.16;5065621;28;20032;-70
2022/10/25 05:15:54;;;;;;;16.00;5.22;;;;;;;9.00;72.21;95227.94;5062335;28;20464;-70
2022/10/25 05:18:20;;;;;;;10.05;4.70;;;;;;;9.18;72.32;95231.81;5066109;28;20071;-70
2022/10/25 05:20:51;;;;;;;12.18;4.97;;;;;;;9.17;71.87;95235.34;5065944;28;20422;-70
2022/10/25 05:23:16;;;;;;;12.65;5.43;;;;;;;9.13;72.60;95228.72;5047497;28;20029;-70
2022/10/25 05:25:42;;;;;;;12.23;5.78;;;;;;;9.15;72.02;95241.59;5054136;28;20079;-70
2022/10/25 05:28:07;;;;;;;13.40;5.25;;;;;;;9.09;72.91;95236.84;5066665;28;20037;-70
2022/10/25 05:30:33;;;;;;;19.60;5.45;;;;;;;9.12;72.45;95224.47;5067082;28;20036;-70
2022/10/25 05:32:58;;;;;;;14.57;5.45;;;;;;;9.21;72.15;95238.56;5066459;28;20406;-69
2022/10/25 05:35:23;;;;;;;11.23;5.65;;;;;;;9.33;72.33;95239.44;5068679;28;20040;-70
2022/10/25 05:37:49;;;;;;;13.18;4.65;;;;;;;9.27;72.38;95232.94;5069285;28;20094;-70
2022/10/25 05:40:14;;;;;;;10.77;5.15;;;;;;;9.34;73.12;95254.91;5052990;28;20029;-70
2022/10/25 05:42:40;;;;;;;14.93;5.72;;;;;;;9.59;71.77;95251.38;5068254;28;20557;-70
2022/10/25 05:45:06;;;;;;;13.23;6.40;;;;;;;9.47;71.88;95262.66;5069425;28;20109;-70
2022/10/25 05:47:31;;;;;;;13.30;5.75;;;;;;;9.50;72.27;95267.63;5066114;28;20532;-70
2022/10/25 05:49:56;;;;;;;16.13;5.45;;;;;;;9.68;71.89;95269.81;5054170;28;20040;-69
2022/10/25 05:52:22;;;;;;;10.52;5.53;;;;;;;9.75;72.03;95276.19;5067668;28;20028;-70
2022/10/25 05:54:47;;;;;;;9.55;4.80;;;;;;;9.80;71.94;95280.13;5069708;28;20086;-70
2022/10/25 05:57:13;;;;;;;12.30;5.68;;;;;;;9.75;71.64;95287.44;5067847;28;20052;-70
2022/10/25 05:59:38;;;;;;;16.25;6.32;;;;;;;9.62;72.73;95299.63;5070093;28;20493;-70
2022/10/25 06:02:04;;;;;;;11.68;5.70;;;;;;;9.83;72.95;95298.09;5071573;28;20044;-70
2022/10/25 06:04:29;;;;;;;15.82;5.60;;;;;;;10.09;71.38;95294.53;5059365;28;20032;-70
2022/10/25 06:06:56;;;;;;;45.40;11.57;;;;;;;10.07;71.51;95305.03;5067911;28;20040;-70
2022/10/25 06:09:22;;;;;;;18.13;6.45;;;;;;;10.10;71.79;95307.41;5052948;28;20092;-70
2022/10/25 06:11:47;;;;;;;18.83;5.65;;;;;;;10.16;71.39;95296.56;5043065;28;20037;-69
2022/10/25 06:14:13;;;;;;;24.70;7.05;;;;;;;10.29;71.12;95294.75;5072548;28;20085;-70
2022/10/25 06:16:38;;;;;;;18.35;5.18;;;;;;;10.32;70.58;95295.47;5073846;28;20037;-70
2022/10/25 06:19:04;;;;;;;17.67;6.32;;;;;;;10.45;70.46;95310.03;5056051;28;20103;-70
2022/10/25 06:21:29;;;;;;;14.95;5.10;;;;;;;10.46;70.36;95292.66;5072893;28;20601;-70
2022/10/25 06:23:55;;;;;;;10.15;4.90;;;;;;;10.64;70.20;95303.44;5053713;28;20174;-70
2022/10/25 06:26:25;;;;;;;13.80;5.28;;;;;;;10.69;69.62;95289.16;5042123;28;20492;-70
2022/10/25 06:28:55;;;;;;;14.13;6.50;;;;;;;10.74;69.89;95307.81;5051748;28;20059;-70
2022/10/25 06:31:20;;;;;;;13.82;6.05;;;;;;;10.96;69.66;95319.19;5053993;28;20039;-70
2022/10/25 06:33:46;;;;;;;15.05;5.95;;;;;;;11.02;69.26;95300.53;5053709;28;20391;-70
2022/10/25 06:36:16;;;;;;;16.90;7.85;;;;;;;11.12;69.22;95300.66;5070075;28;20036;-70
2022/10/25 06:38:45;;;;;;;18.90;8.02;;;;;;;11.68;67.57;95311.00;5070761;28;20032;-71
2022/10/25 06:41:18;;;;;;;18.75;7.22;;;;;;;12.37;65.20;95310.69;5072232;28;20120;-71
2022/10/25 06:43:44;;;;;;;21.13;7.43;;;;;;;12.93;63.68;95306.91;5051707;28;20401;-71
2022/10/25 06:46:24;;;;;;;16.92;7.85;;;;;;;13.54;61.52;95306.06;5054921;28;20024;-69
2022/10/25 06:48:50;;;;;;;18.60;6.75;;;;;;;13.72;60.37;95293.22;5039569;28;20029;-70
2022/10/25 06:51:16;;;;;;;17.95;6.93;;;;;;;14.06;59.61;95304.13;5073322;28;20028;-71
2022/10/25 06:53:41;;;;;;;20.15;7.47;;;;;;;13.97;59.51;95297.91;5072108;28;20082;-70
2022/10/25 06:56:08;;;;;;;13.95;6.75;;;;;;;14.24;58.89;95299.88;5071986;28;20040;-71
2022/10/25 06:58:34;;;;;;;18.98;5.80;;;;;;;14.55;58.18;95306.78;5071980;28;20550;-71
2022/10/25 07:01:03;;;;;;;17.27;6.95;;;;;;;14.81;58.02;95302.59;5071434;28;20116;-70
2022/10/25 07:03:33;;;;;;;13.82;6.53;;;;;;;15.28;55.98;95296.53;5058942;28;20071;-71
2022/10/25 07:06:00;;;;;;;14.63;6.32;;;;;;;15.53;55.22;95290.63;5042573;28;20103;-71
2022/10/25 07:08:26;;;;;;;14.18;6.43;;;;;;;16.17;53.91;95285.41;5053384;28;20149;-71
2022/10/25 07:10:55;;;;;;;21.98;6.68;;;;;;;16.81;52.23;95289.56;5060260;28;20029;-71
2022/10/25 07:13:20;;;;;;;18.15;6.57;;;;;;;17.33;50.80;95284.28;5058651;28;20024;-71
2022/10/25 07:15:46;;;;;;;13.70;6.75;;;;;;;18.04;48.90;95277.00;5054727;28;20478;-70
2022/10/25 07:18:11;;;;;;;12.98;7.00;;;;;;;18.51;47.49;95274.56;5054385;28;20036;-71
2022/10/25 07:20:37;;;;;;;17.08;7.03;;;;;;;19.18;45.93;95265.63;5068832;28;20025;-70
2022/10/25 07:23:02;;;;;;;21.40;7.22;;;;;;;20.04;44.62;95277.94;5034920;28;20029;-70
2022/10/25 07:25:28;;;;;;;20.98;6.65;;;;;;;20.68;42.82;95274.22;5052719;28;20032;-71
2022/10/25 07:27:53;;;;;;;18.67;6.47;;;;;;;21.40;41.52;95274.53;5034932;28;20033;-71
2022/10/25 07:30:18;;;;;;;21.08;7.15;;;;;;;21.74;40.28;95265.19;5052680;28;20044;-71
2022/10/25 07:32:44;;;;;;;17.83;6.68;;;;;;;22.31;38.84;95260.94;5052927;28;20044;-71
2022/10/25 07:35:09;;;;;;;19.48;7.18;;;;;;;23.06;37.00;95259.56;5034693;28;20036;-71
2022/10/25 07:37:35;;;;;;;19.98;6.00;;;;;;;23.58;36.73;95257.44;5051270;28;20036;-71
2022/10/25 07:40:00;;;;;;;21.50;7.03;;;;;;;23.76;35.95;95254.25;5052478;28;20033;-71
2022/10/25 07:42:26;;;;;;;20.52;6.28;;;;;;;24.22;34.93;95250.94;5051124;28;20040;-71
2022/10/25 07:44:51;;;;;;;19.38;6.78;;;;;;;24.49;34.45;95247.34;5052402;28;20025;-71
2022/10/25 07:47:16;;;;;;;18.05;6.22;;;;;;;24.79;33.60;95254.06;5051149;28;20044;-71
2022/10/25 07:49:42;;;;;;;21.45;7.03;;;;;;;25.01;33.81;95252.03;5051102;28;20024;-71
2022/10/25 07:52:07;;;;;;;18.95;6.70;;;;;;;25.23;33.70;95253.47;5052272;28;20036;-71
2022/10/25 07:54:33;;;;;;;22.52;7.72;;;;;;;24.73;33.79;95250.41;5051017;28;20029;-71
2022/10/25 07:57:00;;;;;;;27.70;8.57;;;;;;;23.40;36.32;95252.63;5050524;28;20106;-71
2022/10/25 07:59:25;;;;;;;21.50;7.60;;;;;;;22.92;37.13;95253.31;5050915;28;20025;-71
2022/10/25 08:01:50;;;;;;;18.23;7.07;;;;;;;22.43;38.05;95242.75;5052166;28;20037;-71
2022/10/25 08:04:16;;;;;;;19.67;7.15;;;;;;;21.74;39.48;95251.97;5050702;28;20402;-71
2022/10/25 08:06:41;;;;;;;25.15;8.18;;;;;;;21.14;40.79;95252.97;5052014;28;20041;-71
2022/10/25 08:09:07;;;;;;;19.50;8.48;;;;;;;20.61;42.44;95244.25;5050648;28;20497;-70
2022/10/25 08:11:32;;;;;;;18.23;7.28;;;;;;;20.57;42.29;95246.44;5050559;28;20052;-71
2022/10/25 08:13:58;;;;;;;19.65;7.15;;;;;;;20.74;41.85;95250.56;5050521;28;20081;-70
2022/10/25 08:16:23;;;;;;;19.85;7.20;;;;;;;20.71;41.79;95250.13;5050400;28;20036;-70
2022/10/25 08:18:49;;;;;;;22.55;7.72;;;;;;;20.74;41.74;95247.13;5051648;28;20036;-71
2022/10/25 08:21:14;;;;;;;16.45;6.82;;;;;;;20.72;41.56;95242.00;5050356;28;20028;-70
2022/10/25 08:23:39;;;;;;;20.05;7.53;;;;;;;20.71;41.47;95227.19;5033778;28;20083;-71
2022/10/25 08:26:05;;;;;;;21.42;7.10;;;;;;;20.68;41.43;95232.81;5051573;28;20052;-70
2022/10/25 08:28:30;;;;;;;20.60;6.55;;;;;;;20.55;41.97;95235.22;5052001;28;20037;-70
2022/10/25 08:30:56;;;;;;;20.17;6.72;;;;;;;20.59;41.63;95235.69;5033717;28;20502;-70
2022/10/25 08:33:22;;;;;;;22.17;7.75;;;;;;;20.67;41.63;95233.81;5050036;28;20037;-70
2022/10/25 08:35:48;;;;;;;21.83;7.43;;;;;;;20.48;41.84;95221.91;5050153;28;20479;-71
2022/10/25 08:38:13;;;;;;;18.92;6.88;;;;;;;20.59;42.40;95233.06;5051682;28;20029;-70
2022/10/25 08:40:50;;;;;;;19.77;7.13;;;;;;;20.62;42.15;95243.28;5050143;28;20086;-70
2022/10/25 08:43:34;;;;;;;24.20;9.73;;;;;;;20.58;42.13;95231.44;5051660;28;20036;-70
2022/10/25 08:46:04;;;;;;;31.25;12.10;;;;;;;20.43;42.28;95218.16;5051199;28;20043;-70
2022/10/25 08:48:33;;;;;;;26.58;9.60;;;;;;;20.46;42.23;95223.91;5049854;28;20028;-71
2022/10/25 08:51:20;;;;;;;21.90;9.15;;;;;;;20.60;41.80;95226.78;5033344;28;20032;-70
2022/10/25 08:53:49;;;;;;;24.80;8.25;;;;;;;20.44;42.37;95220.63;5049743;28;20128;-71
2022/10/25 08:56:15;;;;;;;16.52;7.47;;;;;;;20.60;41.67;95219.69;5033769;28;20059;-70
2022/10/25 08:58:50;;;;;;;19.88;7.22;;;;;;;20.57;41.88;95219.25;5020934;28;20021;-70
2022/10/25 09:01:19;;;;;;;25.23;7.43;;;;;;;20.27;42.20;95213.84;5031945;28;20036;-70
2022/10/25 09:03:45;;;;;;;20.35;7.13;;;;;;;20.46;42.09;95215.16;5066253;28;20024;-70
2022/10/25 09:07:03;;;;;;;23.92;6.85;;;;;;;20.57;41.74;95211.31;5050810;28;20544;-70
2022/10/25 09:09:40;;;;;;;23.33;7.82;;;;;;;20.55;41.91;95211.50;5039235;28;20511;-70
2022/10/25 09:12:18;;;;;;;20.50;6.63;;;;;;;20.48;41.80;95200.00;5050910;28;20113;-70
2022/10/25 09:15:00;;;;;;;23.27;7.47;;;;;;;20.64;41.13;95209.59;5048308;28;20041;-70
2022/10/25 09:17:37;;;;;;;17.17;6.57;;;;;;;20.68;41.31;95205.59;5050747;28;20095;-70
2022/10/25 09:20:27;;;;;;;15.93;6.22;;;;;;;20.72;40.52;95201.59;5050890;28;20029;-70
2022/10/25 09:22:57;;;;;;;20.07;6.80;;;;;;;20.70;40.97;95198.34;5047995;28;20448;-70
2022/10/25 09:26:04;;;;;;;17.60;6.20;;;;;;;20.77;40.75;95199.25;5049553;28;20285;-70
2022/10/25 09:28:54;;;;;;;17.25;5.93;;;;;;;20.72;40.95;95197.13;5050757;28;20052;-70
2022/10/25 09:31:22;;;;;;;14.40;6.88;;;;;;;20.73;41.22;95195.34;5050721;28;20071;-71
2022/10/25 09:33:47;;;;;;;17.02;6.38;;;;;;;20.73;41.40;95203.25;5049455;28;20426;-70
2022/10/25 09:36:13;;;;;;;23.95;7.07;;;;;;;20.73;41.30;95190.88;5065987;28;20029;-70
2022/10/25 09:38:45;;;;;;;21.92;7.35;;;;;;;20.74;41.33;95189.84;5066019;28;20435;-70
2022/10/25 09:41:19;;;;;;;20.25;6.43;;;;;;;20.82;41.40;95196.88;5049385;28;20430;-70
2022/10/25 09:43:52;;;;;;;18.73;6.47;;;;;;;20.87;41.07;95193.72;5049374;28;20112;-71
2022/10/25 09:46:32;;;;;;;20.58;7.15;;;;;;;20.88;41.05;95192.69;5049401;28;20036;-70
2022/10/25 09:49:01;;;;;;;19.63;6.63;;;;;;;20.88;40.78;95175.03;5049822;28;20037;-70
2022/10/25 09:51:39;;;;;;;14.88;6.20;;;;;;;20.94;40.95;95184.84;5049832;28;20226;-70
2022/10/25 09:54:14;;;;;;;18.45;6.03;;;;;;;20.93;41.08;95182.41;5050373;28;20045;-70
2022/10/25 09:56:39;;;;;;;21.50;6.55;;;;;;;20.85;40.51;95178.03;5049702;28;20056;-70
2022/10/25 09:59:05;;;;;;;20.42;6.47;;;;;;;20.91;40.94;95171.22;5065750;28;20025;-70
2022/10/25 10:01:30;;;;;;;15.00;5.78;;;;;;;20.87;40.99;95154.91;5049174;28;20033;-70
2022/10/25 10:04:06;;;;;;;21.48;5.72;;;;;;;20.92;40.62;95159.63;5049071;28;20033;-70
2022/10/25 10:06:33;;;;;;;13.43;5.22;;;;;;;20.96;40.81;95164.38;5049149;28;20389;-71
2022/10/25 10:09:01;;;;;;;13.07;5.75;;;;;;;20.99;40.33;95155.28;5065742;28;20045;-70
2022/10/25 10:11:27;;;;;;;12.27;5.65;;;;;;;20.96;40.90;95145.09;5049153;28;20060;-70
2022/10/25 10:14:02;;;;;;;18.42;6.53;;;;;;;20.94;40.07;95158.44;5050196;28;20040;-70
2022/10/25 10:16:34;;;;;;;21.38;5.68;;;;;;;20.97;40.35;95150.16;5050151;28;20025;-70
2022/10/25 10:19:20;;;;;;;21.48;6.53;;;;;;;21.00;39.90;95148.97;5048894;28;20459;-70
2022/10/25 10:21:52;;;;;;;18.85;6.20;;;;;;;21.01;40.07;95141.91;5052783;28;20037;-71
2022/10/25 10:24:20;;;;;;;20.20;5.95;;;;;;;20.94;39.91;95120.66;5052603;28;20083;-70
2022/10/25 10:26:48;;;;;;;21.77;6.90;;;;;;;21.11;39.99;95140.59;5052769;28;20068;-70
2022/10/25 10:29:20;;;;;;;20.50;6.90;;;;;;;20.94;39.79;95139.97;5052644;28;20029;-70
2022/10/25 10:31:50;;;;;;;20.77;6.63;;;;;;;20.81;39.50;95129.25;5052716;28;20033;-70
2022/10/25 10:34:42;;;;;;;16.63;6.63;;;;;;;20.92;40.30;95136.72;5052475;28;20025;-70
2022/10/25 10:37:15;;;;;;;18.65;6.72;;;;;;;21.10;40.29;95124.94;5064404;28;20646;-70
2022/10/25 10:39:59;;;;;;;21.75;7.15;;;;;;;21.01;39.53;95126.06;5052344;28;20104;-71
2022/10/25 10:42:34;;;;;;;20.10;6.47;;;;;;;21.13;39.40;95119.28;5053390;28;20550;-70
2022/10/25 10:45:14;;;;;;;21.60;6.72;;;;;;;21.14;39.53;95105.06;5053472;28;20017;-71
2022/10/25 10:47:48;;;;;;;19.30;6.43;;;;;;;21.26;39.09;95108.88;5068931;28;20033;-70
2022/10/25 10:50:22;;;;;;;21.40;5.75;;;;;;;21.29;39.45;95105.06;5053596;28;20260;-70
2022/10/25 10:52:57;;;;;;;14.55;6.05;;;;;;;21.31;39.72;95100.38;5052217;28;20036;-70
2022/10/25 10:55:46;;;;;;;19.38;6.38;;;;;;;21.27;40.16;95097.31;5052065;28;20020;-70
2022/10/25 10:58:29;;;;;;;18.95;6.82;;;;;;;21.16;38.74;95088.03;5052243;28;20044;-70
2022/10/25 11:00:58;;;;;;;17.38;5.80;;;;;;;21.36;40.19;95098.00;5053453;28;20407;-71
2022/10/25 11:03:41;;;;;;;18.30;6.70;;;;;;;21.40;40.24;95089.56;5035086;28;20036;-71
2022/10/25 11:06:17;;;;;;;20.35;6.43;;;;;;;21.46;39.73;95093.28;5051959;28;20033;-70
2022/10/25 11:08:47;;;;;;;15.13;5.80;;;;;;;21.48;39.96;95082.50;5051745;28;20144;-71
2022/10/25 11:11:17;;;;;;;19.50;5.85;;;;;;;21.50;39.93;95072.56;5035518;28;20035;-70
2022/10/25 11:13:53;;;;;;;13.73;5.60;;;;;;;21.61;39.75;95072.06;5051895;28;20032;-71
2022/10/25 11:16:33;;;;;;;18.90;6.03;;;;;;;21.66;38.79;95072.31;5068194;28;20029;-70
2022/10/25 11:19:08;;;;;;;;;;;;;;;21.70;37.53;95073.56;5053321;28;20517;-70
2022/10/25 11:21:36;;;;;;;16.48;5.55;;;;;;;21.74;38.09;95069.56;5052870;28;19920;-71
2022/10/25 11:24:11;;;;;;;17.17;6.13;;;;;;;21.80;39.07;95074.06;5052676;28;20025;-70
2022/10/25 11:26:55;;;;;;;20.63;6.45;;;;;;;21.92;38.70;95076.22;5051491;28;20037;-70
2022/10/25 11:29:45;;;;;;;19.38;6.35;;;;;;;21.99;38.86;95067.31;5053042;28;20082;-70
2022/10/25 11:32:40;;;;;;;20.90;5.87;;;;;;;22.04;38.61;95058.84;5052374;28;20093;-70
2022/10/25 11:35:33;;;;;;;20.42;6.03;;;;;;;22.11;38.25;95057.03;5052612;28;20060;-70
2022/10/25 11:38:02;;;;;;;16.55;5.95;;;;;;;22.19;38.08;95053.47;5051671;28;20033;-70